sensor_id;sensor_type;location;lat;lon;timestamp;P1;durP1;ratioP1;P2;durP2;ratioP2
26060;SDS011;36331;51.378;0.018;2022-09-14T00:01:56;8.75;;;5.65;;
26060;SDS011;36331;51.378;0.018;2022-09-14T00:04:26;9.73;;;5.90;;
26060;SDS011;36331;51.378;0.018;2022-09-14T00:06:55;9.00;;;5.93;;
26060;SDS011;36331;51.378;0.018;2022-09-14T00:09:23;9.10;;;6.15;;
26060;SDS011;36331;51.378;0.018;2022-09-14T00:11:54;9.93;;;5.97;;
26060;SDS011;36331;51.378;0.018;2022-09-14T00:14:23;8.48;;;6.07;;
26060;SDS011;36331;51.378;0.018;2022-09-14T00:16:52;10.50;;;5.50;;
26060;SDS011;36331;51.378;0.018;2022-09-14T00:19:22;8.38;;;5.30;;
26060;SDS011;36331;51.378;0.018;2022-09-14T00:21:52;10.80;;;5.97;;
26060;SDS011;36331;51.378;0.018;2022-09-14T00:24:21;9.68;;;5.57;;
26060;SDS011;36331;51.378;0.018;2022-09-14T00:26:51;9.95;;;5.97;;
26060;SDS011;36331;51.378;0.018;2022-09-14T00:29:21;9.55;;;5.18;;
26060;SDS011;36331;51.378;0.018;2022-09-14T00:31:51;8.77;;;5.25;;
26060;SDS011;36331;51.378;0.018;2022-09-14T00:34:20;7.53;;;4.60;;
26060;SDS011;36331;51.378;0.018;2022-09-14T00:36:50;9.90;;;4.75;;
26060;SDS011;36331;51.378;0.018;2022-09-14T00:39:20;9.35;;;4.75;;
26060;SDS011;36331;51.378;0.018;2022-09-14T00:41:51;8.48;;;4.30;;
26060;SDS011;36331;51.378;0.018;2022-09-14T00:47:10;6.50;;;3.10;;
26060;SDS011;36331;51.378;0.018;2022-09-14T00:49:42;5.80;;;3.55;;
26060;SDS011;36331;51.378;0.018;2022-09-14T00:52:12;6.20;;;3.92;;
26060;SDS011;36331;51.378;0.018;2022-09-14T00:54:42;6.40;;;3.30;;
26060;SDS011;36331;51.378;0.018;2022-09-14T00:57:12;6.05;;;3.00;;
26060;SDS011;36331;51.378;0.018;2022-09-14T00:59:42;7.18;;;3.25;;
26060;SDS011;36331;51.378;0.018;2022-09-14T01:02:12;4.90;;;2.78;;
26060;SDS011;36331;51.378;0.018;2022-09-14T01:04:43;8.18;;;2.67;;
26060;SDS011;36331;51.378;0.018;2022-09-14T01:07:14;3.88;;;2.28;;
26060;SDS011;36331;51.378;0.018;2022-09-14T01:09:47;5.22;;;2.22;;
26060;SDS011;36331;51.378;0.018;2022-09-14T01:12:28;8.55;;;2.58;;
26060;SDS011;36331;51.378;0.018;2022-09-14T01:15:02;6.30;;;2.50;;
26060;SDS011;36331;51.378;0.018;2022-09-14T01:17:35;3.63;;;1.77;;
26060;SDS011;36331;51.378;0.018;2022-09-14T01:20:09;6.78;;;3.17;;
26060;SDS011;36331;51.378;0.018;2022-09-14T01:22:48;5.78;;;2.10;;
26060;SDS011;36331;51.378;0.018;2022-09-14T01:25:27;5.80;;;2.35;;
26060;SDS011;36331;51.378;0.018;2022-09-14T01:28:04;6.28;;;3.15;;
26060;SDS011;36331;51.378;0.018;2022-09-14T01:30:33;7.53;;;3.28;;
26060;SDS011;36331;51.378;0.018;2022-09-14T01:33:05;7.43;;;3.78;;
26060;SDS011;36331;51.378;0.018;2022-09-14T01:35:35;5.75;;;3.17;;
26060;SDS011;36331;51.378;0.018;2022-09-14T01:38:07;7.45;;;3.67;;
26060;SDS011;36331;51.378;0.018;2022-09-14T01:40:38;5.13;;;3.50;;
26060;SDS011;36331;51.378;0.018;2022-09-14T01:43:13;5.90;;;3.10;;
26060;SDS011;36331;51.378;0.018;2022-09-14T01:45:42;5.78;;;3.92;;
26060;SDS011;36331;51.378;0.018;2022-09-14T01:48:14;7.25;;;3.60;;
26060;SDS011;36331;51.378;0.018;2022-09-14T01:50:46;6.57;;;3.28;;
26060;SDS011;36331;51.378;0.018;2022-09-14T01:53:17;4.97;;;3.28;;
26060;SDS011;36331;51.378;0.018;2022-09-14T01:55:50;6.88;;;3.13;;
26060;SDS011;36331;51.378;0.018;2022-09-14T01:58:22;5.25;;;3.40;;
26060;SDS011;36331;51.378;0.018;2022-09-14T02:00:54;6.22;;;2.80;;
26060;SDS011;36331;51.378;0.018;2022-09-14T02:03:25;6.40;;;2.72;;
26060;SDS011;36331;51.378;0.018;2022-09-14T02:05:56;6.28;;;3.03;;
26060;SDS011;36331;51.378;0.018;2022-09-14T02:08:27;6.28;;;2.35;;
26060;SDS011;36331;51.378;0.018;2022-09-14T02:10:57;3.08;;;1.80;;
26060;SDS011;36331;51.378;0.018;2022-09-14T02:13:27;7.30;;;2.03;;
26060;SDS011;36331;51.378;0.018;2022-09-14T02:15:57;4.95;;;2.05;;
26060;SDS011;36331;51.378;0.018;2022-09-14T02:18:26;2.10;;;1.40;;
26060;SDS011;36331;51.378;0.018;2022-09-14T02:20:56;3.42;;;1.42;;
26060;SDS011;36331;51.378;0.018;2022-09-14T02:23:26;5.45;;;1.98;;
26060;SDS011;36331;51.378;0.018;2022-09-14T02:25:55;4.00;;;1.40;;
26060;SDS011;36331;51.378;0.018;2022-09-14T02:28:25;1.92;;;1.73;;
26060;SDS011;36331;51.378;0.018;2022-09-14T02:30:58;6.70;;;1.60;;
26060;SDS011;36331;51.378;0.018;2022-09-14T02:33:31;5.70;;;1.60;;
26060;SDS011;36331;51.378;0.018;2022-09-14T02:36:04;5.22;;;1.42;;
26060;SDS011;36331;51.378;0.018;2022-09-14T02:38:39;4.20;;;1.73;;
26060;SDS011;36331;51.378;0.018;2022-09-14T02:41:11;9.35;;;1.77;;
26060;SDS011;36331;51.378;0.018;2022-09-14T02:43:44;4.10;;;2.00;;
26060;SDS011;36331;51.378;0.018;2022-09-14T02:46:27;6.03;;;1.85;;
26060;SDS011;36331;51.378;0.018;2022-09-14T02:49:03;10.20;;;2.47;;
26060;SDS011;36331;51.378;0.018;2022-09-14T02:51:34;6.22;;;2.70;;
26060;SDS011;36331;51.378;0.018;2022-09-14T02:54:05;7.15;;;3.28;;
26060;SDS011;36331;51.378;0.018;2022-09-14T02:56:36;8.93;;;4.57;;
26060;SDS011;36331;51.378;0.018;2022-09-14T02:59:05;9.95;;;5.43;;
26060;SDS011;36331;51.378;0.018;2022-09-14T03:01:35;10.52;;;6.07;;
26060;SDS011;36331;51.378;0.018;2022-09-14T03:04:04;9.52;;;5.55;;
26060;SDS011;36331;51.378;0.018;2022-09-14T03:06:33;11.65;;;6.38;;
26060;SDS011;36331;51.378;0.018;2022-09-14T03:09:02;14.85;;;6.50;;
26060;SDS011;36331;51.378;0.018;2022-09-14T03:11:31;9.73;;;6.60;;
26060;SDS011;36331;51.378;0.018;2022-09-14T03:14:00;8.45;;;6.28;;
26060;SDS011;36331;51.378;0.018;2022-09-14T03:16:30;12.73;;;6.95;;
26060;SDS011;36331;51.378;0.018;2022-09-14T03:19:00;10.60;;;6.72;;
26060;SDS011;36331;51.378;0.018;2022-09-14T03:21:29;11.05;;;6.72;;
26060;SDS011;36331;51.378;0.018;2022-09-14T03:23:58;9.27;;;6.18;;
26060;SDS011;36331;51.378;0.018;2022-09-14T03:26:27;9.50;;;6.57;;
26060;SDS011;36331;51.378;0.018;2022-09-14T03:28:57;9.00;;;6.18;;
26060;SDS011;36331;51.378;0.018;2022-09-14T03:31:26;11.95;;;6.78;;
26060;SDS011;36331;51.378;0.018;2022-09-14T03:33:56;12.85;;;6.70;;
26060;SDS011;36331;51.378;0.018;2022-09-14T03:36:27;15.50;;;7.45;;
26060;SDS011;36331;51.378;0.018;2022-09-14T03:38:57;11.80;;;6.50;;
26060;SDS011;36331;51.378;0.018;2022-09-14T03:41:27;12.95;;;6.97;;
26060;SDS011;36331;51.378;0.018;2022-09-14T03:43:56;13.43;;;7.38;;
26060;SDS011;36331;51.378;0.018;2022-09-14T03:46:29;14.07;;;8.10;;
26060;SDS011;36331;51.378;0.018;2022-09-14T03:48:58;13.60;;;8.30;;
26060;SDS011;36331;51.378;0.018;2022-09-14T03:51:28;12.25;;;7.18;;
26060;SDS011;36331;51.378;0.018;2022-09-14T03:53:57;13.40;;;8.57;;
26060;SDS011;36331;51.378;0.018;2022-09-14T03:56:26;13.45;;;8.38;;
26060;SDS011;36331;51.378;0.018;2022-09-14T03:58:56;14.23;;;7.88;;
26060;SDS011;36331;51.378;0.018;2022-09-14T04:01:25;12.23;;;8.25;;
26060;SDS011;36331;51.378;0.018;2022-09-14T04:03:55;10.82;;;7.38;;
26060;SDS011;36331;51.378;0.018;2022-09-14T04:06:24;13.98;;;7.85;;
26060;SDS011;36331;51.378;0.018;2022-09-14T04:08:55;13.30;;;7.50;;
26060;SDS011;36331;51.378;0.018;2022-09-14T04:11:25;14.13;;;8.20;;
26060;SDS011;36331;51.378;0.018;2022-09-14T04:13:59;13.43;;;7.47;;
26060;SDS011;36331;51.378;0.018;2022-09-14T04:16:28;12.27;;;7.38;;
26060;SDS011;36331;51.378;0.018;2022-09-14T04:18:57;13.13;;;7.97;;
26060;SDS011;36331;51.378;0.018;2022-09-14T04:21:26;14.05;;;8.35;;
26060;SDS011;36331;51.378;0.018;2022-09-14T04:23:57;16.88;;;7.97;;
26060;SDS011;36331;51.378;0.018;2022-09-14T04:26:42;20.52;;;9.15;;
26060;SDS011;36331;51.378;0.018;2022-09-14T04:29:11;15.48;;;8.52;;
26060;SDS011;36331;51.378;0.018;2022-09-14T04:31:40;18.73;;;9.18;;
26060;SDS011;36331;51.378;0.018;2022-09-14T04:34:10;16.70;;;9.40;;
26060;SDS011;36331;51.378;0.018;2022-09-14T04:36:40;19.30;;;9.52;;
26060;SDS011;36331;51.378;0.018;2022-09-14T04:39:11;25.20;;;10.63;;
26060;SDS011;36331;51.378;0.018;2022-09-14T04:41:41;18.80;;;11.38;;
26060;SDS011;36331;51.378;0.018;2022-09-14T04:44:10;21.60;;;10.77;;
26060;SDS011;36331;51.378;0.018;2022-09-14T04:46:39;17.42;;;11.13;;
26060;SDS011;36331;51.378;0.018;2022-09-14T04:49:12;21.25;;;11.00;;
26060;SDS011;36331;51.378;0.018;2022-09-14T04:51:42;16.77;;;10.13;;
26060;SDS011;36331;51.378;0.018;2022-09-14T04:54:14;20.08;;;10.15;;
26060;SDS011;36331;51.378;0.018;2022-09-14T04:56:44;19.02;;;9.63;;
26060;SDS011;36331;51.378;0.018;2022-09-14T04:59:13;16.45;;;9.73;;
26060;SDS011;36331;51.378;0.018;2022-09-14T05:01:44;22.77;;;10.60;;
26060;SDS011;36331;51.378;0.018;2022-09-14T05:04:14;18.48;;;10.57;;
26060;SDS011;36331;51.378;0.018;2022-09-14T05:06:43;20.20;;;10.57;;
26060;SDS011;36331;51.378;0.018;2022-09-14T05:09:15;20.65;;;11.18;;
26060;SDS011;36331;51.378;0.018;2022-09-14T05:11:44;21.30;;;10.63;;
26060;SDS011;36331;51.378;0.018;2022-09-14T05:14:15;22.38;;;10.57;;
26060;SDS011;36331;51.378;0.018;2022-09-14T05:16:44;17.75;;;11.18;;
26060;SDS011;36331;51.378;0.018;2022-09-14T05:19:14;24.17;;;11.50;;
26060;SDS011;36331;51.378;0.018;2022-09-14T05:21:44;20.23;;;11.73;;
26060;SDS011;36331;51.378;0.018;2022-09-14T05:24:15;17.60;;;11.60;;
26060;SDS011;36331;51.378;0.018;2022-09-14T05:26:44;19.70;;;11.88;;
26060;SDS011;36331;51.378;0.018;2022-09-14T05:29:14;16.73;;;10.30;;
26060;SDS011;36331;51.378;0.018;2022-09-14T05:31:44;17.42;;;10.32;;
26060;SDS011;36331;51.378;0.018;2022-09-14T05:34:13;21.63;;;9.77;;
26060;SDS011;36331;51.378;0.018;2022-09-14T05:36:42;18.48;;;9.57;;
26060;SDS011;36331;51.378;0.018;2022-09-14T05:39:11;15.05;;;9.02;;
26060;SDS011;36331;51.378;0.018;2022-09-14T05:41:47;14.82;;;9.48;;
26060;SDS011;36331;51.378;0.018;2022-09-14T05:44:16;19.15;;;9.77;;
26060;SDS011;36331;51.378;0.018;2022-09-14T05:46:45;17.95;;;10.45;;
26060;SDS011;36331;51.378;0.018;2022-09-14T05:49:15;19.90;;;10.82;;
26060;SDS011;36331;51.378;0.018;2022-09-14T05:51:43;15.38;;;9.07;;
26060;SDS011;36331;51.378;0.018;2022-09-14T05:54:13;14.13;;;9.35;;
26060;SDS011;36331;51.378;0.018;2022-09-14T05:56:42;14.93;;;8.23;;
26060;SDS011;36331;51.378;0.018;2022-09-14T05:59:13;15.20;;;7.22;;
26060;SDS011;36331;51.378;0.018;2022-09-14T06:01:42;17.77;;;7.85;;
26060;SDS011;36331;51.378;0.018;2022-09-14T06:04:13;13.85;;;7.03;;
26060;SDS011;36331;51.378;0.018;2022-09-14T06:06:44;14.20;;;7.32;;
26060;SDS011;36331;51.378;0.018;2022-09-14T06:09:33;11.90;;;6.82;;
26060;SDS011;36331;51.378;0.018;2022-09-14T06:12:02;11.38;;;6.47;;
26060;SDS011;36331;51.378;0.018;2022-09-14T06:14:33;15.15;;;6.28;;
26060;SDS011;36331;51.378;0.018;2022-09-14T06:17:03;9.50;;;6.43;;
26060;SDS011;36331;51.378;0.018;2022-09-14T06:19:32;10.20;;;6.03;;
26060;SDS011;36331;51.378;0.018;2022-09-14T06:22:04;11.63;;;7.50;;
26060;SDS011;36331;51.378;0.018;2022-09-14T06:24:33;14.32;;;6.30;;
26060;SDS011;36331;51.378;0.018;2022-09-14T06:27:04;11.10;;;6.05;;
26060;SDS011;36331;51.378;0.018;2022-09-14T06:29:36;13.30;;;6.13;;
26060;SDS011;36331;51.378;0.018;2022-09-14T06:32:05;9.73;;;6.00;;
26060;SDS011;36331;51.378;0.018;2022-09-14T06:34:36;15.45;;;5.63;;
26060;SDS011;36331;51.378;0.018;2022-09-14T06:37:04;9.73;;;5.60;;
26060;SDS011;36331;51.378;0.018;2022-09-14T06:39:34;8.68;;;5.75;;
26060;SDS011;36331;51.378;0.018;2022-09-14T06:42:03;7.93;;;4.85;;
26060;SDS011;36331;51.378;0.018;2022-09-14T06:44:32;8.63;;;4.60;;
26060;SDS011;36331;51.378;0.018;2022-09-14T06:47:03;9.25;;;5.55;;
26060;SDS011;36331;51.378;0.018;2022-09-14T06:49:32;20.25;;;5.40;;
26060;SDS011;36331;51.378;0.018;2022-09-14T06:52:04;13.80;;;6.03;;
26060;SDS011;36331;51.378;0.018;2022-09-14T06:54:33;9.90;;;4.63;;
26060;SDS011;36331;51.378;0.018;2022-09-14T06:57:02;9.18;;;4.78;;
26060;SDS011;36331;51.378;0.018;2022-09-14T06:59:31;9.50;;;4.43;;
26060;SDS011;36331;51.378;0.018;2022-09-14T07:02:05;7.88;;;4.50;;
26060;SDS011;36331;51.378;0.018;2022-09-14T07:04:34;9.30;;;5.15;;
26060;SDS011;36331;51.378;0.018;2022-09-14T07:07:03;9.57;;;4.30;;
26060;SDS011;36331;51.378;0.018;2022-09-14T07:09:35;11.77;;;4.18;;
26060;SDS011;36331;51.378;0.018;2022-09-14T07:12:05;9.85;;;5.00;;
26060;SDS011;36331;51.378;0.018;2022-09-14T07:14:36;9.23;;;4.55;;
26060;SDS011;36331;51.378;0.018;2022-09-14T07:17:08;9.73;;;4.65;;
26060;SDS011;36331;51.378;0.018;2022-09-14T07:19:39;10.27;;;5.15;;
26060;SDS011;36331;51.378;0.018;2022-09-14T07:22:09;7.18;;;4.25;;
26060;SDS011;36331;51.378;0.018;2022-09-14T07:24:38;9.80;;;4.70;;
26060;SDS011;36331;51.378;0.018;2022-09-14T07:27:07;8.55;;;4.22;;
26060;SDS011;36331;51.378;0.018;2022-09-14T07:29:36;8.30;;;4.10;;
26060;SDS011;36331;51.378;0.018;2022-09-14T07:32:10;5.93;;;4.45;;
26060;SDS011;36331;51.378;0.018;2022-09-14T07:34:39;7.15;;;4.18;;
26060;SDS011;36331;51.378;0.018;2022-09-14T07:37:08;9.02;;;4.03;;
26060;SDS011;36331;51.378;0.018;2022-09-14T07:39:38;7.10;;;3.85;;
26060;SDS011;36331;51.378;0.018;2022-09-14T07:42:09;8.38;;;3.63;;
26060;SDS011;36331;51.378;0.018;2022-09-14T07:44:39;10.35;;;3.97;;
26060;SDS011;36331;51.378;0.018;2022-09-14T07:47:09;8.02;;;3.83;;
26060;SDS011;36331;51.378;0.018;2022-09-14T07:49:38;6.28;;;3.95;;
26060;SDS011;36331;51.378;0.018;2022-09-14T07:52:07;9.70;;;5.18;;
26060;SDS011;36331;51.378;0.018;2022-09-14T07:54:37;6.78;;;4.15;;
26060;SDS011;36331;51.378;0.018;2022-09-14T07:57:09;8.77;;;3.88;;
26060;SDS011;36331;51.378;0.018;2022-09-14T07:59:38;6.90;;;3.40;;
26060;SDS011;36331;51.378;0.018;2022-09-14T08:02:12;5.60;;;3.55;;
26060;SDS011;36331;51.378;0.018;2022-09-14T08:04:41;7.88;;;4.03;;
26060;SDS011;36331;51.378;0.018;2022-09-14T08:07:10;9.43;;;4.07;;
26060;SDS011;36331;51.378;0.018;2022-09-14T08:09:41;10.40;;;4.53;;
26060;SDS011;36331;51.378;0.018;2022-09-14T08:12:10;8.82;;;4.10;;
26060;SDS011;36331;51.378;0.018;2022-09-14T08:14:42;7.43;;;3.92;;
26060;SDS011;36331;51.378;0.018;2022-09-14T08:17:12;9.27;;;4.38;;
26060;SDS011;36331;51.378;0.018;2022-09-14T08:19:41;7.90;;;4.97;;
26060;SDS011;36331;51.378;0.018;2022-09-14T08:22:11;6.25;;;4.28;;
26060;SDS011;36331;51.378;0.018;2022-09-14T08:24:41;9.02;;;4.80;;
26060;SDS011;36331;51.378;0.018;2022-09-14T08:27:10;12.25;;;5.45;;
26060;SDS011;36331;51.378;0.018;2022-09-14T08:29:43;7.68;;;4.80;;
26060;SDS011;36331;51.378;0.018;2022-09-14T08:32:13;7.82;;;5.38;;
26060;SDS011;36331;51.378;0.018;2022-09-14T08:34:42;10.18;;;5.68;;
26060;SDS011;36331;51.378;0.018;2022-09-14T08:37:11;7.38;;;4.80;;
26060;SDS011;36331;51.378;0.018;2022-09-14T08:39:41;8.30;;;4.55;;
26060;SDS011;36331;51.378;0.018;2022-09-14T08:42:18;8.43;;;5.25;;
26060;SDS011;36331;51.378;0.018;2022-09-14T08:44:49;10.02;;;3.95;;
26060;SDS011;36331;51.378;0.018;2022-09-14T08:47:22;7.90;;;4.50;;
26060;SDS011;36331;51.378;0.018;2022-09-14T08:49:55;5.60;;;4.50;;
26060;SDS011;36331;51.378;0.018;2022-09-14T08:52:26;9.52;;;3.63;;
26060;SDS011;36331;51.378;0.018;2022-09-14T08:54:58;9.73;;;4.88;;
26060;SDS011;36331;51.378;0.018;2022-09-14T08:57:32;5.95;;;4.10;;
26060;SDS011;36331;51.378;0.018;2022-09-14T09:00:06;7.20;;;3.75;;
26060;SDS011;36331;51.378;0.018;2022-09-14T09:05:29;7.78;;;4.43;;
26060;SDS011;36331;51.378;0.018;2022-09-14T09:08:00;6.22;;;3.53;;
26060;SDS011;36331;51.378;0.018;2022-09-14T09:10:31;9.80;;;3.88;;
26060;SDS011;36331;51.378;0.018;2022-09-14T09:13:04;10.95;;;4.00;;
26060;SDS011;36331;51.378;0.018;2022-09-14T09:15:36;6.32;;;3.85;;
26060;SDS011;36331;51.378;0.018;2022-09-14T09:18:07;6.70;;;3.35;;
26060;SDS011;36331;51.378;0.018;2022-09-14T09:20:41;7.68;;;3.70;;
26060;SDS011;36331;51.378;0.018;2022-09-14T09:23:14;9.38;;;3.55;;
26060;SDS011;36331;51.378;0.018;2022-09-14T09:25:47;7.35;;;3.53;;
26060;SDS011;36331;51.378;0.018;2022-09-14T09:28:19;11.50;;;3.92;;
26060;SDS011;36331;51.378;0.018;2022-09-14T09:30:49;5.25;;;3.47;;
26060;SDS011;36331;51.378;0.018;2022-09-14T09:33:25;7.45;;;3.08;;
26060;SDS011;36331;51.378;0.018;2022-09-14T09:36:10;4.47;;;2.55;;
26060;SDS011;36331;51.378;0.018;2022-09-14T09:38:40;5.88;;;2.95;;
26060;SDS011;36331;51.378;0.018;2022-09-14T09:41:10;10.88;;;2.88;;
26060;SDS011;36331;51.378;0.018;2022-09-14T09:43:56;4.15;;;3.20;;
26060;SDS011;36331;51.378;0.018;2022-09-14T09:46:26;7.45;;;3.40;;
26060;SDS011;36331;51.378;0.018;2022-09-14T09:48:56;6.95;;;2.80;;
26060;SDS011;36331;51.378;0.018;2022-09-14T09:51:27;7.47;;;3.33;;
26060;SDS011;36331;51.378;0.018;2022-09-14T09:54:00;6.85;;;3.20;;
26060;SDS011;36331;51.378;0.018;2022-09-14T09:56:30;8.55;;;2.90;;
26060;SDS011;36331;51.378;0.018;2022-09-14T09:59:20;6.00;;;2.80;;
26060;SDS011;36331;51.378;0.018;2022-09-14T10:01:49;4.45;;;2.53;;
26060;SDS011;36331;51.378;0.018;2022-09-14T10:04:23;5.55;;;2.72;;
26060;SDS011;36331;51.378;0.018;2022-09-14T10:09:26;6.93;;;2.80;;
26060;SDS011;36331;51.378;0.018;2022-09-14T10:11:56;6.93;;;2.80;;
26060;SDS011;36331;51.378;0.018;2022-09-14T10:14:27;8.95;;;2.90;;
26060;SDS011;36331;51.378;0.018;2022-09-14T10:17:05;6.20;;;2.53;;
26060;SDS011;36331;51.378;0.018;2022-09-14T10:19:35;5.47;;;2.75;;
26060;SDS011;36331;51.378;0.018;2022-09-14T10:24:58;7.22;;;2.15;;
26060;SDS011;36331;51.378;0.018;2022-09-14T10:27:38;6.55;;;2.70;;
26060;SDS011;36331;51.378;0.018;2022-09-14T10:30:10;6.90;;;2.05;;
26060;SDS011;36331;51.378;0.018;2022-09-14T10:32:41;6.60;;;2.03;;
26060;SDS011;36331;51.378;0.018;2022-09-14T10:35:12;5.80;;;2.13;;
26060;SDS011;36331;51.378;0.018;2022-09-14T10:38:00;5.80;;;1.52;;
26060;SDS011;36331;51.378;0.018;2022-09-14T10:40:36;4.25;;;1.40;;
26060;SDS011;36331;51.378;0.018;2022-09-14T10:43:10;4.22;;;1.55;;
26060;SDS011;36331;51.378;0.018;2022-09-14T10:45:40;5.32;;;1.60;;
26060;SDS011;36331;51.378;0.018;2022-09-14T10:48:15;3.63;;;1.60;;
26060;SDS011;36331;51.378;0.018;2022-09-14T10:50:52;6.00;;;2.30;;
26060;SDS011;36331;51.378;0.018;2022-09-14T10:53:27;8.40;;;2.35;;
26060;SDS011;36331;51.378;0.018;2022-09-14T10:56:02;3.72;;;1.70;;
26060;SDS011;36331;51.378;0.018;2022-09-14T10:58:47;7.93;;;1.90;;
26060;SDS011;36331;51.378;0.018;2022-09-14T11:06:39;6.55;;;2.08;;
26060;SDS011;36331;51.378;0.018;2022-09-14T11:09:15;6.25;;;2.50;;
26060;SDS011;36331;51.378;0.018;2022-09-14T11:11:50;4.45;;;2.10;;
26060;SDS011;36331;51.378;0.018;2022-09-14T11:14:27;7.60;;;2.90;;
26060;SDS011;36331;51.378;0.018;2022-09-14T11:17:06;4.72;;;2.00;;
26060;SDS011;36331;51.378;0.018;2022-09-14T11:19:41;3.42;;;2.22;;
26060;SDS011;36331;51.378;0.018;2022-09-14T11:22:17;6.30;;;2.50;;
26060;SDS011;36331;51.378;0.018;2022-09-14T11:24:52;6.95;;;2.83;;
26060;SDS011;36331;51.378;0.018;2022-09-14T11:29:52;6.03;;;2.20;;
26060;SDS011;36331;51.378;0.018;2022-09-14T11:32:25;6.80;;;2.38;;
26060;SDS011;36331;51.378;0.018;2022-09-14T11:34:56;5.20;;;2.25;;
26060;SDS011;36331;51.378;0.018;2022-09-14T11:37:33;6.88;;;2.75;;
26060;SDS011;36331;51.378;0.018;2022-09-14T11:40:07;6.68;;;2.40;;
26060;SDS011;36331;51.378;0.018;2022-09-14T11:42:49;6.13;;;2.53;;
26060;SDS011;36331;51.378;0.018;2022-09-14T11:45:21;6.72;;;2.42;;
26060;SDS011;36331;51.378;0.018;2022-09-14T11:47:53;5.60;;;2.15;;
26060;SDS011;36331;51.378;0.018;2022-09-14T11:50:24;6.35;;;2.35;;
26060;SDS011;36331;51.378;0.018;2022-09-14T11:52:57;7.97;;;2.38;;
26060;SDS011;36331;51.378;0.018;2022-09-14T11:55:28;4.38;;;2.35;;
26060;SDS011;36331;51.378;0.018;2022-09-14T11:57:58;4.00;;;1.90;;
26060;SDS011;36331;51.378;0.018;2022-09-14T12:00:43;5.78;;;1.90;;
26060;SDS011;36331;51.378;0.018;2022-09-14T12:03:14;5.80;;;1.75;;
26060;SDS011;36331;51.378;0.018;2022-09-14T12:05:44;4.22;;;1.35;;
26060;SDS011;36331;51.378;0.018;2022-09-14T12:08:26;3.27;;;1.03;;
26060;SDS011;36331;51.378;0.018;2022-09-14T12:11:03;3.35;;;0.90;;
26060;SDS011;36331;51.378;0.018;2022-09-14T12:13:32;3.47;;;0.95;;
26060;SDS011;36331;51.378;0.018;2022-09-14T12:16:05;4.30;;;1.23;;
26060;SDS011;36331;51.378;0.018;2022-09-14T12:18:35;6.15;;;1.20;;
26060;SDS011;36331;51.378;0.018;2022-09-14T12:21:15;4.20;;;1.20;;
26060;SDS011;36331;51.378;0.018;2022-09-14T12:23:46;2.67;;;0.90;;
26060;SDS011;36331;51.378;0.018;2022-09-14T12:29:23;6.03;;;1.38;;
26060;SDS011;36331;51.378;0.018;2022-09-14T12:32:03;2.42;;;0.73;;
26060;SDS011;36331;51.378;0.018;2022-09-14T12:34:35;3.30;;;0.65;;
26060;SDS011;36331;51.378;0.018;2022-09-14T12:42:43;3.50;;;0.90;;
26060;SDS011;36331;51.378;0.018;2022-09-14T12:48:01;2.13;;;0.85;;
26060;SDS011;36331;51.378;0.018;2022-09-14T12:50:31;3.15;;;0.80;;
26060;SDS011;36331;51.378;0.018;2022-09-14T12:56:00;3.65;;;0.85;;
26060;SDS011;36331;51.378;0.018;2022-09-14T13:01:25;2.85;;;0.75;;
26060;SDS011;36331;51.378;0.018;2022-09-14T13:03:57;5.10;;;1.00;;
26060;SDS011;36331;51.378;0.018;2022-09-14T13:06:29;3.38;;;0.82;;
26060;SDS011;36331;51.378;0.018;2022-09-14T13:09:00;4.63;;;1.33;;
26060;SDS011;36331;51.378;0.018;2022-09-14T13:11:36;4.97;;;1.08;;
26060;SDS011;36331;51.378;0.018;2022-09-14T13:14:10;4.55;;;1.02;;
26060;SDS011;36331;51.378;0.018;2022-09-14T13:16:42;6.28;;;1.23;;
26060;SDS011;36331;51.378;0.018;2022-09-14T13:19:19;3.33;;;1.02;;
26060;SDS011;36331;51.378;0.018;2022-09-14T13:21:50;4.22;;;0.93;;
26060;SDS011;36331;51.378;0.018;2022-09-14T13:26:50;3.22;;;0.95;;
26060;SDS011;36331;51.378;0.018;2022-09-14T13:29:23;3.25;;;1.25;;
26060;SDS011;36331;51.378;0.018;2022-09-14T13:31:54;1.67;;;1.00;;
26060;SDS011;36331;51.378;0.018;2022-09-14T13:34:33;4.00;;;0.73;;
26060;SDS011;36331;51.378;0.018;2022-09-14T13:37:04;3.97;;;0.90;;
26060;SDS011;36331;51.378;0.018;2022-09-14T13:39:34;5.57;;;0.65;;
26060;SDS011;36331;51.378;0.018;2022-09-14T13:44:37;4.43;;;0.68;;
26060;SDS011;36331;51.378;0.018;2022-09-14T13:47:13;2.67;;;0.68;;
26060;SDS011;36331;51.378;0.018;2022-09-14T13:49:44;2.20;;;0.70;;
26060;SDS011;36331;51.378;0.018;2022-09-14T13:55:22;2.13;;;0.80;;
26060;SDS011;36331;51.378;0.018;2022-09-14T13:58:05;2.88;;;0.60;;
26060;SDS011;36331;51.378;0.018;2022-09-14T14:00:44;1.98;;;0.68;;
26060;SDS011;36331;51.378;0.018;2022-09-14T14:03:17;1.30;;;0.50;;
26060;SDS011;36331;51.378;0.018;2022-09-14T14:05:51;3.33;;;0.60;;
26060;SDS011;36331;51.378;0.018;2022-09-14T14:08:24;1.15;;;0.52;;
26060;SDS011;36331;51.378;0.018;2022-09-14T14:10:55;2.08;;;0.68;;
26060;SDS011;36331;51.378;0.018;2022-09-14T14:13:24;1.77;;;0.50;;
26060;SDS011;36331;51.378;0.018;2022-09-14T14:18:39;3.33;;;0.52;;
26060;SDS011;36331;51.378;0.018;2022-09-14T14:21:25;3.17;;;0.55;;
26060;SDS011;36331;51.378;0.018;2022-09-14T14:26:45;2.30;;;0.50;;
26060;SDS011;36331;51.378;0.018;2022-09-14T14:29:14;3.15;;;0.70;;
26060;SDS011;36331;51.378;0.018;2022-09-14T14:31:44;4.53;;;0.50;;
26060;SDS011;36331;51.378;0.018;2022-09-14T14:34:18;4.68;;;0.80;;
26060;SDS011;36331;51.378;0.018;2022-09-14T14:36:49;3.67;;;0.65;;
26060;SDS011;36331;51.378;0.018;2022-09-14T14:39:23;3.58;;;0.60;;
26060;SDS011;36331;51.378;0.018;2022-09-14T14:41:54;2.38;;;0.65;;
26060;SDS011;36331;51.378;0.018;2022-09-14T14:44:24;1.58;;;0.80;;
26060;SDS011;36331;51.378;0.018;2022-09-14T14:46:54;19.42;;;11.48;;
26060;SDS011;36331;51.378;0.018;2022-09-14T14:49:24;15.27;;;10.15;;
26060;SDS011;36331;51.378;0.018;2022-09-14T14:51:54;30.23;;;20.90;;
26060;SDS011;36331;51.378;0.018;2022-09-14T14:54:24;10.45;;;5.32;;
26060;SDS011;36331;51.378;0.018;2022-09-14T14:56:56;11.88;;;6.85;;
26060;SDS011;36331;51.378;0.018;2022-09-14T14:59:26;3.90;;;1.73;;
26060;SDS011;36331;51.378;0.018;2022-09-14T15:01:57;5.30;;;0.90;;
26060;SDS011;36331;51.378;0.018;2022-09-14T15:04:26;6.10;;;2.75;;
26060;SDS011;36331;51.378;0.018;2022-09-14T15:06:57;4.88;;;0.95;;
26060;SDS011;36331;51.378;0.018;2022-09-14T15:09:27;3.50;;;0.50;;
26060;SDS011;36331;51.378;0.018;2022-09-14T15:11:58;2.13;;;0.90;;
26060;SDS011;36331;51.378;0.018;2022-09-14T15:14:31;1.42;;;0.70;;
26060;SDS011;36331;51.378;0.018;2022-09-14T15:17:01;1.88;;;1.05;;
26060;SDS011;36331;51.378;0.018;2022-09-14T15:19:30;3.47;;;1.02;;
26060;SDS011;36331;51.378;0.018;2022-09-14T15:22:01;3.22;;;0.85;;
26060;SDS011;36331;51.378;0.018;2022-09-14T15:24:32;3.95;;;0.50;;
26060;SDS011;36331;51.378;0.018;2022-09-14T15:27:02;2.80;;;1.00;;
26060;SDS011;36331;51.378;0.018;2022-09-14T15:29:31;1.33;;;0.50;;
26060;SDS011;36331;51.378;0.018;2022-09-14T15:32:01;6.15;;;1.15;;
26060;SDS011;36331;51.378;0.018;2022-09-14T15:34:30;2.38;;;0.52;;
26060;SDS011;36331;51.378;0.018;2022-09-14T15:36:59;3.65;;;0.70;;
26060;SDS011;36331;51.378;0.018;2022-09-14T15:39:29;2.08;;;0.70;;
26060;SDS011;36331;51.378;0.018;2022-09-14T15:41:58;1.70;;;0.47;;
26060;SDS011;36331;51.378;0.018;2022-09-14T15:44:28;1.95;;;0.60;;
26060;SDS011;36331;51.378;0.018;2022-09-14T15:46:58;3.28;;;1.33;;
26060;SDS011;36331;51.378;0.018;2022-09-14T15:49:28;3.05;;;0.57;;
26060;SDS011;36331;51.378;0.018;2022-09-14T15:51:57;3.63;;;0.47;;
26060;SDS011;36331;51.378;0.018;2022-09-14T15:54:31;3.08;;;0.90;;
26060;SDS011;36331;51.378;0.018;2022-09-14T15:57:00;4.50;;;0.57;;
26060;SDS011;36331;51.378;0.018;2022-09-14T15:59:29;3.17;;;0.60;;